sensor_id;sensor_type;location;lat;lon;timestamp;temperature;humidity
52889;DHT22;41413;52.770;6.892;2023-07-13T00:01:31;17.30;99.90
52889;DHT22;41413;52.770;6.892;2023-07-13T00:03:59;17.30;99.90
52889;DHT22;41413;52.770;6.892;2023-07-13T00:06:26;17.20;99.90
52889;DHT22;41413;52.770;6.892;2023-07-13T00:08:57;17.20;99.90
52889;DHT22;41413;52.770;6.892;2023-07-13T00:11:23;17.20;99.90
52889;DHT22;41413;52.770;6.892;2023-07-13T00:13:50;17.10;99.90
52889;DHT22;41413;52.770;6.892;2023-07-13T00:16:18;17.10;99.90
52889;DHT22;41413;52.770;6.892;2023-07-13T00:18:46;17.10;99.90
52889;DHT22;41413;52.770;6.892;2023-07-13T00:21:13;17.00;99.90
52889;DHT22;41413;52.770;6.892;2023-07-13T00:23:42;16.90;99.90
52889;DHT22;41413;52.770;6.892;2023-07-13T00:26:10;17.00;99.90
52889;DHT22;41413;52.770;6.892;2023-07-13T00:28:38;17.00;99.90
52889;DHT22;41413;52.770;6.892;2023-07-13T00:31:06;17.00;99.90
52889;DHT22;41413;52.770;6.892;2023-07-13T00:33:35;17.00;99.90
52889;DHT22;41413;52.770;6.892;2023-07-13T00:36:03;17.00;99.90
52889;DHT22;41413;52.770;6.892;2023-07-13T00:38:30;16.90;99.90
52889;DHT22;41413;52.770;6.892;2023-07-13T00:40:57;16.80;99.90
52889;DHT22;41413;52.770;6.892;2023-07-13T00:43:26;16.80;99.90
52889;DHT22;41413;52.770;6.892;2023-07-13T00:48:23;16.80;99.90
52889;DHT22;41413;52.770;6.892;2023-07-13T00:50:53;16.80;99.90
52889;DHT22;41413;52.770;6.892;2023-07-13T00:53:21;16.70;99.90
52889;DHT22;41413;52.770;6.892;2023-07-13T00:55:50;16.70;99.90
52889;DHT22;41413;52.770;6.892;2023-07-13T00:58:17;16.80;99.90
52889;DHT22;41413;52.770;6.892;2023-07-13T01:00:45;16.80;99.90
52889;DHT22;41413;52.770;6.892;2023-07-13T01:03:13;16.90;99.90
52889;DHT22;41413;52.770;6.892;2023-07-13T01:05:40;16.80;99.90
52889;DHT22;41413;52.770;6.892;2023-07-13T01:08:08;16.80;99.90
52889;DHT22;41413;52.770;6.892;2023-07-13T01:10:35;16.80;99.90
52889;DHT22;41413;52.770;6.892;2023-07-13T01:13:07;16.80;99.90
52889;DHT22;41413;52.770;6.892;2023-07-13T01:15:41;16.80;99.90
52889;DHT22;41413;52.770;6.892;2023-07-13T01:18:14;16.80;99.90
52889;DHT22;41413;52.770;6.892;2023-07-13T01:20:52;16.80;99.90
52889;DHT22;41413;52.770;6.892;2023-07-13T01:23:19;16.80;99.90
52889;DHT22;41413;52.770;6.892;2023-07-13T01:25:45;16.80;99.90
52889;DHT22;41413;52.770;6.892;2023-07-13T01:28:13;16.80;99.90
52889;DHT22;41413;52.770;6.892;2023-07-13T01:30:40;16.90;99.90
52889;DHT22;41413;52.770;6.892;2023-07-13T01:33:08;16.90;99.90
52889;DHT22;41413;52.770;6.892;2023-07-13T01:35:36;16.80;99.90
52889;DHT22;41413;52.770;6.892;2023-07-13T01:38:04;16.80;99.90
52889;DHT22;41413;52.770;6.892;2023-07-13T01:40:31;16.80;99.90
52889;DHT22;41413;52.770;6.892;2023-07-13T01:42:58;16.80;99.90
52889;DHT22;41413;52.770;6.892;2023-07-13T01:45:26;16.80;99.90
52889;DHT22;41413;52.770;6.892;2023-07-13T01:47:52;16.70;99.90
52889;DHT22;41413;52.770;6.892;2023-07-13T01:50:19;16.80;99.90
52889;DHT22;41413;52.770;6.892;2023-07-13T01:52:46;16.90;99.90
52889;DHT22;41413;52.770;6.892;2023-07-13T01:55:13;16.80;99.90
52889;DHT22;41413;52.770;6.892;2023-07-13T01:57:40;16.80;99.90
52889;DHT22;41413;52.770;6.892;2023-07-13T02:00:09;16.80;99.90
52889;DHT22;41413;52.770;6.892;2023-07-13T02:02:37;16.90;99.90
52889;DHT22;41413;52.770;6.892;2023-07-13T02:05:04;16.80;99.90
52889;DHT22;41413;52.770;6.892;2023-07-13T02:07:31;16.80;99.90
52889;DHT22;41413;52.770;6.892;2023-07-13T02:09:58;16.80;99.90
52889;DHT22;41413;52.770;6.892;2023-07-13T02:12:25;16.80;99.90
52889;DHT22;41413;52.770;6.892;2023-07-13T02:14:51;16.80;99.90
52889;DHT22;41413;52.770;6.892;2023-07-13T02:17:18;16.80;99.90
52889;DHT22;41413;52.770;6.892;2023-07-13T02:19:45;16.80;99.90
52889;DHT22;41413;52.770;6.892;2023-07-13T02:22:12;16.90;99.90
52889;DHT22;41413;52.770;6.892;2023-07-13T02:24:39;16.80;99.90
52889;DHT22;41413;52.770;6.892;2023-07-13T02:27:06;16.80;99.90
52889;DHT22;41413;52.770;6.892;2023-07-13T02:29:33;16.80;99.90
52889;DHT22;41413;52.770;6.892;2023-07-13T02:32:00;16.80;99.90
52889;DHT22;41413;52.770;6.892;2023-07-13T02:34:26;16.80;99.90
52889;DHT22;41413;52.770;6.892;2023-07-13T02:36:54;16.80;99.90
52889;DHT22;41413;52.770;6.892;2023-07-13T02:39:20;16.70;99.90
52889;DHT22;41413;52.770;6.892;2023-07-13T02:41:47;16.70;99.90
52889;DHT22;41413;52.770;6.892;2023-07-13T02:44:14;16.80;99.90
52889;DHT22;41413;52.770;6.892;2023-07-13T02:46:41;16.70;99.90
52889;DHT22;41413;52.770;6.892;2023-07-13T02:49:08;16.70;99.90
52889;DHT22;41413;52.770;6.892;2023-07-13T02:51:35;16.60;99.90
52889;DHT22;41413;52.770;6.892;2023-07-13T02:54:04;16.60;99.90
52889;DHT22;41413;52.770;6.892;2023-07-13T02:56:33;16.70;99.90
52889;DHT22;41413;52.770;6.892;2023-07-13T02:59:00;16.70;99.90
52889;DHT22;41413;52.770;6.892;2023-07-13T03:01:27;16.80;99.90
52889;DHT22;41413;52.770;6.892;2023-07-13T03:03:54;16.70;99.90
52889;DHT22;41413;52.770;6.892;2023-07-13T03:06:22;16.60;99.90
52889;DHT22;41413;52.770;6.892;2023-07-13T03:08:49;16.70;99.90
52889;DHT22;41413;52.770;6.892;2023-07-13T03:11:19;16.60;99.90
52889;DHT22;41413;52.770;6.892;2023-07-13T03:13:46;16.60;99.90
52889;DHT22;41413;52.770;6.892;2023-07-13T03:16:13;16.40;99.90
52889;DHT22;41413;52.770;6.892;2023-07-13T03:18:46;16.60;99.90
52889;DHT22;41413;52.770;6.892;2023-07-13T03:21:13;16.50;99.90
52889;DHT22;41413;52.770;6.892;2023-07-13T03:23:40;16.50;99.90
52889;DHT22;41413;52.770;6.892;2023-07-13T03:26:09;16.50;99.90
52889;DHT22;41413;52.770;6.892;2023-07-13T03:28:37;16.50;99.90
52889;DHT22;41413;52.770;6.892;2023-07-13T03:31:10;16.50;99.90
52889;DHT22;41413;52.770;6.892;2023-07-13T03:33:38;16.50;99.90
52889;DHT22;41413;52.770;6.892;2023-07-13T03:36:06;16.50;99.90
52889;DHT22;41413;52.770;6.892;2023-07-13T03:38:35;16.50;99.90
52889;DHT22;41413;52.770;6.892;2023-07-13T03:41:02;16.50;99.90
52889;DHT22;41413;52.770;6.892;2023-07-13T03:43:29;16.50;99.90
52889;DHT22;41413;52.770;6.892;2023-07-13T03:45:56;16.50;99.90
52889;DHT22;41413;52.770;6.892;2023-07-13T03:48:23;16.40;99.90
52889;DHT22;41413;52.770;6.892;2023-07-13T03:50:49;16.40;99.90
52889;DHT22;41413;52.770;6.892;2023-07-13T03:53:16;16.40;99.90
52889;DHT22;41413;52.770;6.892;2023-07-13T03:55:43;16.40;99.90
52889;DHT22;41413;52.770;6.892;2023-07-13T03:58:25;16.50;99.90
52889;DHT22;41413;52.770;6.892;2023-07-13T04:00:54;16.40;99.90
52889;DHT22;41413;52.770;6.892;2023-07-13T04:03:21;16.40;99.90
52889;DHT22;41413;52.770;6.892;2023-07-13T04:05:48;16.40;99.90
52889;DHT22;41413;52.770;6.892;2023-07-13T04:08:15;16.30;99.90
52889;DHT22;41413;52.770;6.892;2023-07-13T04:10:43;16.30;99.90
52889;DHT22;41413;52.770;6.892;2023-07-13T04:13:09;16.30;99.90
52889;DHT22;41413;52.770;6.892;2023-07-13T04:15:36;16.30;99.90
52889;DHT22;41413;52.770;6.892;2023-07-13T04:18:03;16.30;99.90
52889;DHT22;41413;52.770;6.892;2023-07-13T04:20:30;16.20;99.90
52889;DHT22;41413;52.770;6.892;2023-07-13T04:22:57;16.20;99.90
52889;DHT22;41413;52.770;6.892;2023-07-13T04:25:24;16.20;99.90
52889;DHT22;41413;52.770;6.892;2023-07-13T04:27:52;16.20;99.90
52889;DHT22;41413;52.770;6.892;2023-07-13T04:30:19;16.20;99.90
52889;DHT22;41413;52.770;6.892;2023-07-13T04:32:46;16.20;99.90
52889;DHT22;41413;52.770;6.892;2023-07-13T04:35:13;16.20;99.90
52889;DHT22;41413;52.770;6.892;2023-07-13T04:37:40;16.30;99.90
52889;DHT22;41413;52.770;6.892;2023-07-13T04:40:08;16.20;99.90
52889;DHT22;41413;52.770;6.892;2023-07-13T04:42:38;16.20;99.90
52889;DHT22;41413;52.770;6.892;2023-07-13T04:45:08;16.30;99.90
52889;DHT22;41413;52.770;6.892;2023-07-13T04:47:35;16.30;99.90
52889;DHT22;41413;52.770;6.892;2023-07-13T04:50:02;16.30;99.90
52889;DHT22;41413;52.770;6.892;2023-07-13T04:52:29;16.30;99.90
52889;DHT22;41413;52.770;6.892;2023-07-13T04:54:56;16.30;99.90
52889;DHT22;41413;52.770;6.892;2023-07-13T04:57:22;16.30;99.90
52889;DHT22;41413;52.770;6.892;2023-07-13T04:59:49;16.40;99.90
52889;DHT22;41413;52.770;6.892;2023-07-13T05:02:16;16.30;99.90
52889;DHT22;41413;52.770;6.892;2023-07-13T05:04:49;16.20;99.90
52889;DHT22;41413;52.770;6.892;2023-07-13T05:07:15;16.10;99.90
52889;DHT22;41413;52.770;6.892;2023-07-13T05:09:42;16.20;99.90
52889;DHT22;41413;52.770;6.892;2023-07-13T05:12:09;16.20;99.90
52889;DHT22;41413;52.770;6.892;2023-07-13T05:14:36;16.10;99.90
52889;DHT22;41413;52.770;6.892;2023-07-13T05:17:03;16.10;99.90
52889;DHT22;41413;52.770;6.892;2023-07-13T05:19:30;16.10;99.90
52889;DHT22;41413;52.770;6.892;2023-07-13T05:21:57;16.10;99.90
52889;DHT22;41413;52.770;6.892;2023-07-13T05:24:24;16.20;99.90
52889;DHT22;41413;52.770;6.892;2023-07-13T05:26:52;16.20;99.90
52889;DHT22;41413;52.770;6.892;2023-07-13T05:29:21;16.20;99.90
52889;DHT22;41413;52.770;6.892;2023-07-13T05:31:49;16.30;99.90
52889;DHT22;41413;52.770;6.892;2023-07-13T05:34:16;16.30;99.90
52889;DHT22;41413;52.770;6.892;2023-07-13T05:36:42;16.30;99.90
52889;DHT22;41413;52.770;6.892;2023-07-13T05:39:09;16.20;99.90
52889;DHT22;41413;52.770;6.892;2023-07-13T05:41:38;16.40;99.90
52889;DHT22;41413;52.770;6.892;2023-07-13T05:44:04;16.30;99.90
52889;DHT22;41413;52.770;6.892;2023-07-13T05:46:31;16.40;99.90
52889;DHT22;41413;52.770;6.892;2023-07-13T05:48:58;16.50;99.90
52889;DHT22;41413;52.770;6.892;2023-07-13T05:51:25;16.50;99.90
52889;DHT22;41413;52.770;6.892;2023-07-13T05:53:52;16.50;99.90
52889;DHT22;41413;52.770;6.892;2023-07-13T05:56:19;16.50;99.90
52889;DHT22;41413;52.770;6.892;2023-07-13T05:58:45;16.60;99.90
52889;DHT22;41413;52.770;6.892;2023-07-13T06:01:13;16.60;99.90
52889;DHT22;41413;52.770;6.892;2023-07-13T06:03:41;16.70;99.90
52889;DHT22;41413;52.770;6.892;2023-07-13T06:06:09;16.70;99.90
52889;DHT22;41413;52.770;6.892;2023-07-13T06:08:37;16.70;99.90
52889;DHT22;41413;52.770;6.892;2023-07-13T06:11:07;16.70;99.90
52889;DHT22;41413;52.770;6.892;2023-07-13T06:13:34;16.60;99.90
52889;DHT22;41413;52.770;6.892;2023-07-13T06:16:02;16.80;99.90
52889;DHT22;41413;52.770;6.892;2023-07-13T06:18:34;16.80;99.90
52889;DHT22;41413;52.770;6.892;2023-07-13T06:21:07;16.90;99.90
52889;DHT22;41413;52.770;6.892;2023-07-13T06:23:34;17.00;99.90
52889;DHT22;41413;52.770;6.892;2023-07-13T06:26:01;17.00;99.90
52889;DHT22;41413;52.770;6.892;2023-07-13T06:28:28;17.00;99.90
52889;DHT22;41413;52.770;6.892;2023-07-13T06:30:56;17.00;99.90
52889;DHT22;41413;52.770;6.892;2023-07-13T06:33:23;17.10;99.90
52889;DHT22;41413;52.770;6.892;2023-07-13T06:35:50;17.10;99.90
52889;DHT22;41413;52.770;6.892;2023-07-13T06:38:17;17.20;99.90
52889;DHT22;41413;52.770;6.892;2023-07-13T06:40:43;17.20;99.90
52889;DHT22;41413;52.770;6.892;2023-07-13T06:43:10;17.20;99.90
52889;DHT22;41413;52.770;6.892;2023-07-13T06:45:42;17.30;99.90
52889;DHT22;41413;52.770;6.892;2023-07-13T06:48:12;17.40;99.90
52889;DHT22;41413;52.770;6.892;2023-07-13T06:50:39;17.60;99.90
52889;DHT22;41413;52.770;6.892;2023-07-13T06:53:05;17.70;99.90
52889;DHT22;41413;52.770;6.892;2023-07-13T06:55:32;17.70;99.90
52889;DHT22;41413;52.770;6.892;2023-07-13T06:57:59;17.70;99.90
52889;DHT22;41413;52.770;6.892;2023-07-13T07:00:26;17.80;99.90
52889;DHT22;41413;52.770;6.892;2023-07-13T07:02:53;18.10;99.90
52889;DHT22;41413;52.770;6.892;2023-07-13T07:05:20;18.10;99.90
52889;DHT22;41413;52.770;6.892;2023-07-13T07:07:50;18.20;99.90
52889;DHT22;41413;52.770;6.892;2023-07-13T07:10:18;18.30;99.90
52889;DHT22;41413;52.770;6.892;2023-07-13T07:12:45;18.50;99.90
52889;DHT22;41413;52.770;6.892;2023-07-13T07:15:12;18.50;99.90
52889;DHT22;41413;52.770;6.892;2023-07-13T07:17:39;18.60;99.90
52889;DHT22;41413;52.770;6.892;2023-07-13T07:20:07;18.60;99.90
52889;DHT22;41413;52.770;6.892;2023-07-13T07:22:34;18.60;99.90
52889;DHT22;41413;52.770;6.892;2023-07-13T07:25:00;18.70;99.90
52889;DHT22;41413;52.770;6.892;2023-07-13T07:27:28;18.70;99.90
52889;DHT22;41413;52.770;6.892;2023-07-13T07:29:58;18.80;99.90
52889;DHT22;41413;52.770;6.892;2023-07-13T07:32:29;18.80;99.90
52889;DHT22;41413;52.770;6.892;2023-07-13T07:35:17;18.90;99.90
52889;DHT22;41413;52.770;6.892;2023-07-13T07:37:44;18.90;99.90
52889;DHT22;41413;52.770;6.892;2023-07-13T07:40:13;18.90;99.90
52889;DHT22;41413;52.770;6.892;2023-07-13T07:42:43;18.80;99.90
52889;DHT22;41413;52.770;6.892;2023-07-13T07:45:10;18.90;99.90
52889;DHT22;41413;52.770;6.892;2023-07-13T07:47:38;18.70;99.90
52889;DHT22;41413;52.770;6.892;2023-07-13T07:50:05;18.70;99.90
52889;DHT22;41413;52.770;6.892;2023-07-13T07:52:33;18.60;99.90
52889;DHT22;41413;52.770;6.892;2023-07-13T07:54:59;18.50;99.90
52889;DHT22;41413;52.770;6.892;2023-07-13T07:57:29;18.60;99.90
52889;DHT22;41413;52.770;6.892;2023-07-13T07:59:59;18.60;99.90
52889;DHT22;41413;52.770;6.892;2023-07-13T08:02:29;18.60;99.90
52889;DHT22;41413;52.770;6.892;2023-07-13T08:04:58;18.60;99.90
52889;DHT22;41413;52.770;6.892;2023-07-13T08:07:30;18.80;99.90
52889;DHT22;41413;52.770;6.892;2023-07-13T08:09:57;18.80;99.90
52889;DHT22;41413;52.770;6.892;2023-07-13T08:12:24;18.80;99.90
52889;DHT22;41413;52.770;6.892;2023-07-13T08:14:54;18.90;99.90
52889;DHT22;41413;52.770;6.892;2023-07-13T08:17:24;19.10;99.90
52889;DHT22;41413;52.770;6.892;2023-07-13T08:19:51;19.10;99.90
52889;DHT22;41413;52.770;6.892;2023-07-13T08:22:18;19.30;99.90
52889;DHT22;41413;52.770;6.892;2023-07-13T08:24:45;19.40;99.90
52889;DHT22;41413;52.770;6.892;2023-07-13T08:27:13;19.50;99.90
52889;DHT22;41413;52.770;6.892;2023-07-13T08:29:40;19.60;99.90
52889;DHT22;41413;52.770;6.892;2023-07-13T08:32:08;19.60;99.90
52889;DHT22;41413;52.770;6.892;2023-07-13T08:34:37;19.70;99.90
52889;DHT22;41413;52.770;6.892;2023-07-13T08:37:04;19.80;99.90
52889;DHT22;41413;52.770;6.892;2023-07-13T08:39:32;20.00;99.90
52889;DHT22;41413;52.770;6.892;2023-07-13T08:42:06;20.20;99.90
52889;DHT22;41413;52.770;6.892;2023-07-13T08:47:07;20.60;99.90
52889;DHT22;41413;52.770;6.892;2023-07-13T08:49:36;20.80;99.90
52889;DHT22;41413;52.770;6.892;2023-07-13T08:54:50;21.60;99.90
52889;DHT22;41413;52.770;6.892;2023-07-13T08:57:27;21.90;99.90
52889;DHT22;41413;52.770;6.892;2023-07-13T08:59:56;21.80;99.90
52889;DHT22;41413;52.770;6.892;2023-07-13T09:05:22;21.90;99.90
52889;DHT22;41413;52.770;6.892;2023-07-13T09:16:14;20.80;99.90
52889;DHT22;41413;52.770;6.892;2023-07-13T09:18:45;20.50;99.90
52889;DHT22;41413;52.770;6.892;2023-07-13T09:21:23;20.30;99.90
52889;DHT22;41413;52.770;6.892;2023-07-13T09:23:54;20.10;99.90
52889;DHT22;41413;52.770;6.892;2023-07-13T09:26:24;20.00;99.90
52889;DHT22;41413;52.770;6.892;2023-07-13T09:28:59;19.80;99.90
52889;DHT22;41413;52.770;6.892;2023-07-13T09:31:34;19.40;99.90
52889;DHT22;41413;52.770;6.892;2023-07-13T09:34:09;18.90;99.90
52889;DHT22;41413;52.770;6.892;2023-07-13T09:36:36;18.40;99.90
52889;DHT22;41413;52.770;6.892;2023-07-13T09:44:16;17.20;99.90
52889;DHT22;41413;52.770;6.892;2023-07-13T09:46:54;16.90;99.90
52889;DHT22;41413;52.770;6.892;2023-07-13T09:49:26;16.50;99.90
52889;DHT22;41413;52.770;6.892;2023-07-13T09:52:10;16.30;99.90
52889;DHT22;41413;52.770;6.892;2023-07-13T09:54:38;16.20;99.90
52889;DHT22;41413;52.770;6.892;2023-07-13T09:57:17;15.90;99.90
52889;DHT22;41413;52.770;6.892;2023-07-13T09:59:50;15.70;99.90
52889;DHT22;41413;52.770;6.892;2023-07-13T10:02:35;15.90;99.90
52889;DHT22;41413;52.770;6.892;2023-07-13T10:05:05;15.80;99.90
52889;DHT22;41413;52.770;6.892;2023-07-13T10:07:38;15.80;99.90
52889;DHT22;41413;52.770;6.892;2023-07-13T10:10:17;16.10;99.90
52889;DHT22;41413;52.770;6.892;2023-07-13T10:12:44;16.10;99.90
52889;DHT22;41413;52.770;6.892;2023-07-13T10:15:17;16.20;99.90
52889;DHT22;41413;52.770;6.892;2023-07-13T10:17:54;16.30;99.90
52889;DHT22;41413;52.770;6.892;2023-07-13T10:20:22;16.30;99.90
52889;DHT22;41413;52.770;6.892;2023-07-13T10:23:04;16.50;99.90
52889;DHT22;41413;52.770;6.892;2023-07-13T10:25:37;16.90;99.90
52889;DHT22;41413;52.770;6.892;2023-07-13T10:28:16;16.90;99.90
52889;DHT22;41413;52.770;6.892;2023-07-13T10:30:48;17.40;99.90
52889;DHT22;41413;52.770;6.892;2023-07-13T10:33:16;17.70;99.90
52889;DHT22;41413;52.770;6.892;2023-07-13T10:35:43;18.00;99.90
52889;DHT22;41413;52.770;6.892;2023-07-13T10:38:17;18.70;99.90
52889;DHT22;41413;52.770;6.892;2023-07-13T10:40:58;18.80;99.90
52889;DHT22;41413;52.770;6.892;2023-07-13T10:43:41;18.80;99.90
52889;DHT22;41413;52.770;6.892;2023-07-13T10:46:13;18.50;99.90
52889;DHT22;41413;52.770;6.892;2023-07-13T10:48:42;19.00;99.90
52889;DHT22;41413;52.770;6.892;2023-07-13T10:51:13;19.40;99.90
52889;DHT22;41413;52.770;6.892;2023-07-13T10:53:41;20.00;99.90
52889;DHT22;41413;52.770;6.892;2023-07-13T10:56:29;20.10;99.90
52889;DHT22;41413;52.770;6.892;2023-07-13T10:59:16;20.50;99.90
52889;DHT22;41413;52.770;6.892;2023-07-13T11:04:48;20.80;99.90
52889;DHT22;41413;52.770;6.892;2023-07-13T11:13:35;21.20;99.90
52889;DHT22;41413;52.770;6.892;2023-07-13T11:16:13;21.10;99.90
52889;DHT22;41413;52.770;6.892;2023-07-13T11:21:27;21.40;99.90
52889;DHT22;41413;52.770;6.892;2023-07-13T11:24:14;21.30;99.90
52889;DHT22;41413;52.770;6.892;2023-07-13T11:26:51;21.00;99.90
52889;DHT22;41413;52.770;6.892;2023-07-13T11:32:00;20.50;99.90
52889;DHT22;41413;52.770;6.892;2023-07-13T11:34:31;20.30;99.90
52889;DHT22;41413;52.770;6.892;2023-07-13T11:37:01;19.30;99.90
52889;DHT22;41413;52.770;6.892;2023-07-13T11:39:32;18.70;99.90
52889;DHT22;41413;52.770;6.892;2023-07-13T11:42:03;18.20;99.90
52889;DHT22;41413;52.770;6.892;2023-07-13T11:44:33;18.00;99.90
52889;DHT22;41413;52.770;6.892;2023-07-13T11:47:09;18.30;99.90
52889;DHT22;41413;52.770;6.892;2023-07-13T11:49:50;18.30;99.90
52889;DHT22;41413;52.770;6.892;2023-07-13T11:52:28;18.60;99.90
52889;DHT22;41413;52.770;6.892;2023-07-13T11:55:00;19.10;99.90
52889;DHT22;41413;52.770;6.892;2023-07-13T11:57:29;20.00;99.90
52889;DHT22;41413;52.770;6.892;2023-07-13T12:00:03;20.20;99.90
52889;DHT22;41413;52.770;6.892;2023-07-13T12:02:36;20.30;99.90
52889;DHT22;41413;52.770;6.892;2023-07-13T12:05:04;20.10;99.90
52889;DHT22;41413;52.770;6.892;2023-07-13T12:07:33;20.70;99.90
52889;DHT22;41413;52.770;6.892;2023-07-13T12:15:22;21.80;99.90
52889;DHT22;41413;52.770;6.892;2023-07-13T12:17:49;21.90;99.90
52889;DHT22;41413;52.770;6.892;2023-07-13T12:20:24;22.30;99.90
52889;DHT22;41413;52.770;6.892;2023-07-13T12:22:52;22.40;99.90
52889;DHT22;41413;52.770;6.892;2023-07-13T12:25:22;22.50;99.90
52889;DHT22;41413;52.770;6.892;2023-07-13T12:27:50;22.50;99.90
52889;DHT22;41413;52.770;6.892;2023-07-13T12:30:30;22.30;99.90
52889;DHT22;41413;52.770;6.892;2023-07-13T12:33:10;22.60;99.90
52889;DHT22;41413;52.770;6.892;2023-07-13T12:35:49;23.00;99.90
52889;DHT22;41413;52.770;6.892;2023-07-13T12:38:16;23.10;99.90
52889;DHT22;41413;52.770;6.892;2023-07-13T12:40:44;22.80;99.90
52889;DHT22;41413;52.770;6.892;2023-07-13T12:43:12;22.30;99.90
52889;DHT22;41413;52.770;6.892;2023-07-13T12:45:39;22.00;99.90
52889;DHT22;41413;52.770;6.892;2023-07-13T12:48:21;21.70;99.90
52889;DHT22;41413;52.770;6.892;2023-07-13T12:51:14;21.60;99.90
52889;DHT22;41413;52.770;6.892;2023-07-13T12:53:48;21.40;99.90
52889;DHT22;41413;52.770;6.892;2023-07-13T12:56:23;21.30;99.90
52889;DHT22;41413;52.770;6.892;2023-07-13T12:58:58;21.30;99.90
52889;DHT22;41413;52.770;6.892;2023-07-13T13:01:29;21.10;99.90
52889;DHT22;41413;52.770;6.892;2023-07-13T13:03:56;20.70;99.90
52889;DHT22;41413;52.770;6.892;2023-07-13T13:06:26;20.20;99.90
52889;DHT22;41413;52.770;6.892;2023-07-13T13:08:56;20.00;99.90
52889;DHT22;41413;52.770;6.892;2023-07-13T13:11:25;20.10;99.90
52889;DHT22;41413;52.770;6.892;2023-07-13T13:13:53;20.20;99.90
52889;DHT22;41413;52.770;6.892;2023-07-13T13:16:33;20.20;99.90
52889;DHT22;41413;52.770;6.892;2023-07-13T13:19:14;20.20;99.90
52889;DHT22;41413;52.770;6.892;2023-07-13T13:21:43;20.50;99.90
52889;DHT22;41413;52.770;6.892;2023-07-13T13:24:15;20.80;99.90
52889;DHT22;41413;52.770;6.892;2023-07-13T13:26:42;20.90;99.90
52889;DHT22;41413;52.770;6.892;2023-07-13T13:29:18;21.00;99.90
52889;DHT22;41413;52.770;6.892;2023-07-13T13:31:46;21.00;99.90
52889;DHT22;41413;52.770;6.892;2023-07-13T13:34:15;21.20;99.90
52889;DHT22;41413;52.770;6.892;2023-07-13T13:36:43;21.40;99.90
52889;DHT22;41413;52.770;6.892;2023-07-13T13:39:28;21.70;99.90
52889;DHT22;41413;52.770;6.892;2023-07-13T13:41:56;21.80;99.90
52889;DHT22;41413;52.770;6.892;2023-07-13T13:44:23;21.90;99.90
52889;DHT22;41413;52.770;6.892;2023-07-13T13:46:53;22.00;99.90
52889;DHT22;41413;52.770;6.892;2023-07-13T13:49:25;22.00;99.90
52889;DHT22;41413;52.770;6.892;2023-07-13T13:51:53;22.10;99.90
52889;DHT22;41413;52.770;6.892;2023-07-13T13:54:22;22.00;99.90
52889;DHT22;41413;52.770;6.892;2023-07-13T13:56:51;21.70;99.90
52889;DHT22;41413;52.770;6.892;2023-07-13T13:59:18;21.50;99.90
52889;DHT22;41413;52.770;6.892;2023-07-13T14:01:47;21.70;99.90
52889;DHT22;41413;52.770;6.892;2023-07-13T14:04:18;22.00;99.90
52889;DHT22;41413;52.770;6.892;2023-07-13T14:06:45;22.10;99.90
52889;DHT22;41413;52.770;6.892;2023-07-13T14:09:14;22.40;99.90
52889;DHT22;41413;52.770;6.892;2023-07-13T14:11:42;22.20;99.90
52889;DHT22;41413;52.770;6.892;2023-07-13T14:14:17;22.30;99.90
52889;DHT22;41413;52.770;6.892;2023-07-13T14:16:44;22.50;99.90
52889;DHT22;41413;52.770;6.892;2023-07-13T14:19:14;22.50;99.90
52889;DHT22;41413;52.770;6.892;2023-07-13T14:21:41;22.70;99.90
52889;DHT22;41413;52.770;6.892;2023-07-13T14:24:08;22.70;99.90
52889;DHT22;41413;52.770;6.892;2023-07-13T14:26:40;22.90;99.90
52889;DHT22;41413;52.770;6.892;2023-07-13T14:29:15;23.00;99.90
52889;DHT22;41413;52.770;6.892;2023-07-13T14:31:48;22.90;99.90
52889;DHT22;41413;52.770;6.892;2023-07-13T14:34:14;22.90;99.90
52889;DHT22;41413;52.770;6.892;2023-07-13T14:36:47;22.80;99.90
52889;DHT22;41413;52.770;6.892;2023-07-13T14:39:21;22.90;99.90
52889;DHT22;41413;52.770;6.892;2023-07-13T14:41:53;22.90;98.70
52889;DHT22;41413;52.770;6.892;2023-07-13T14:44:24;22.90;98.50
52889;DHT22;41413;52.770;6.892;2023-07-13T14:46:52;22.90;99.90
52889;DHT22;41413;52.770;6.892;2023-07-13T14:49:35;22.70;97.50
52889;DHT22;41413;52.770;6.892;2023-07-13T14:52:20;22.80;97.30
52889;DHT22;41413;52.770;6.892;2023-07-13T14:54:49;22.80;99.80
52889;DHT22;41413;52.770;6.892;2023-07-13T14:57:18;22.70;97.50
52889;DHT22;41413;52.770;6.892;2023-07-13T14:59:46;22.80;99.90
52889;DHT22;41413;52.770;6.892;2023-07-13T15:02:26;22.80;99.90
52889;DHT22;41413;52.770;6.892;2023-07-13T15:04:54;22.90;99.90
52889;DHT22;41413;52.770;6.892;2023-07-13T15:07:21;22.90;99.40
52889;DHT22;41413;52.770;6.892;2023-07-13T15:09:50;22.80;99.90
52889;DHT22;41413;52.770;6.892;2023-07-13T15:12:20;22.80;99.90
52889;DHT22;41413;52.770;6.892;2023-07-13T15:14:47;22.80;99.90
52889;DHT22;41413;52.770;6.892;2023-07-13T15:17:28;22.90;99.90
52889;DHT22;41413;52.770;6.892;2023-07-13T15:19:58;22.90;98.40
52889;DHT22;41413;52.770;6.892;2023-07-13T15:22:25;22.80;96.30
52889;DHT22;41413;52.770;6.892;2023-07-13T15:24:52;22.90;96.00
52889;DHT22;41413;52.770;6.892;2023-07-13T15:27:19;22.90;99.80
52889;DHT22;41413;52.770;6.892;2023-07-13T15:29:46;22.90;99.90
52889;DHT22;41413;52.770;6.892;2023-07-13T15:32:14;22.80;99.20
52889;DHT22;41413;52.770;6.892;2023-07-13T15:34:41;22.90;99.90
52889;DHT22;41413;52.770;6.892;2023-07-13T15:37:15;22.80;99.30
52889;DHT22;41413;52.770;6.892;2023-07-13T15:39:42;22.80;99.10
52889;DHT22;41413;52.770;6.892;2023-07-13T15:42:15;22.80;96.20
52889;DHT22;41413;52.770;6.892;2023-07-13T15:44:42;22.70;98.10
52889;DHT22;41413;52.770;6.892;2023-07-13T15:47:11;22.60;94.40
52889;DHT22;41413;52.770;6.892;2023-07-13T15:49:39;22.60;98.40
52889;DHT22;41413;52.770;6.892;2023-07-13T15:52:18;22.70;99.10
52889;DHT22;41413;52.770;6.892;2023-07-13T15:54:46;22.70;97.40
52889;DHT22;41413;52.770;6.892;2023-07-13T15:57:14;22.60;98.00
52889;DHT22;41413;52.770;6.892;2023-07-13T15:59:42;22.70;98.50
52889;DHT22;41413;52.770;6.892;2023-07-13T16:02:20;22.60;98.40
52889;DHT22;41413;52.770;6.892;2023-07-13T16:04:47;22.60;97.20
52889;DHT22;41413;52.770;6.892;2023-07-13T16:07:16;22.60;97.90
52889;DHT22;41413;52.770;6.892;2023-07-13T16:09:46;22.60;98.80
52889;DHT22;41413;52.770;6.892;2023-07-13T16:12:14;22.50;99.00
52889;DHT22;41413;52.770;6.892;2023-07-13T16:14:41;22.40;98.60
52889;DHT22;41413;52.770;6.892;2023-07-13T16:17:11;22.50;99.30
52889;DHT22;41413;52.770;6.892;2023-07-13T16:19:38;22.40;99.10
52889;DHT22;41413;52.770;6.892;2023-07-13T16:22:08;22.50;99.60
52889;DHT22;41413;52.770;6.892;2023-07-13T16:24:39;22.40;97.40
52889;DHT22;41413;52.770;6.892;2023-07-13T16:27:09;22.40;99.00
52889;DHT22;41413;52.770;6.892;2023-07-13T16:29:35;22.30;98.80